Terminal Aerodrome Forecast
Issued by NWS Cleveland, OH

Home | Current Version | Previous Version | Text Only | Print | Product List | Glossary On
Versions: 1 2 3 4 5 6 7 8 9 10 11 12 13 14 15 16 17 18 19 20 21 22 23 24 25 26 27 28
000
FTUS41 KCLE 290300 AAA
TAFCLE
TAF AMD
KCLE 290308Z 2903/3006 31006KT P6SM SCT028
     FM290900 34005KT P6SM BKN025
     FM291800 36006KT P6SM BKN035
     FM292300 03004KT P6SM SCT035=

USA.gov is the U.S. government's official web portal to all federal, state and local government web resources and services.